sensor_id;sensor_type;location;lat;lon;timestamp;P1;durP1;ratioP1;P2;durP2;ratioP2
26253;SDS011;53339;51.378;0.094;2023-08-17T00:00:26;15.30;;;7.95;;
26253;SDS011;53339;51.378;0.094;2023-08-17T00:02:55;18.38;;;9.45;;
26253;SDS011;53339;51.378;0.094;2023-08-17T00:05:24;15.70;;;8.10;;
26253;SDS011;53339;51.378;0.094;2023-08-17T00:07:56;16.80;;;9.00;;
26253;SDS011;53339;51.378;0.094;2023-08-17T00:10:25;17.95;;;8.35;;
26253;SDS011;53339;51.378;0.094;2023-08-17T00:13:00;22.85;;;11.80;;
26253;SDS011;53339;51.378;0.094;2023-08-17T00:15:37;19.30;;;11.40;;
26253;SDS011;53339;51.378;0.094;2023-08-17T00:18:15;18.85;;;10.50;;
26253;SDS011;53339;51.378;0.094;2023-08-17T00:20:45;18.30;;;9.82;;
26253;SDS011;53339;51.378;0.094;2023-08-17T00:23:18;16.48;;;9.35;;
26253;SDS011;53339;51.378;0.094;2023-08-17T00:25:48;17.45;;;9.90;;
26253;SDS011;53339;51.378;0.094;2023-08-17T00:28:19;20.58;;;10.63;;
26253;SDS011;53339;51.378;0.094;2023-08-17T00:30:52;17.50;;;9.90;;
26253;SDS011;53339;51.378;0.094;2023-08-17T00:33:25;17.30;;;9.73;;
26253;SDS011;53339;51.378;0.094;2023-08-17T00:38:44;16.67;;;8.68;;
26253;SDS011;53339;51.378;0.094;2023-08-17T00:41:16;13.70;;;8.80;;
26253;SDS011;53339;51.378;0.094;2023-08-17T00:43:44;17.63;;;9.95;;
26253;SDS011;53339;51.378;0.094;2023-08-17T00:46:12;16.10;;;8.80;;
26253;SDS011;53339;51.378;0.094;2023-08-17T00:48:42;14.23;;;8.40;;
26253;SDS011;53339;51.378;0.094;2023-08-17T00:51:10;20.17;;;9.60;;
26253;SDS011;53339;51.378;0.094;2023-08-17T00:53:41;17.83;;;9.90;;
26253;SDS011;53339;51.378;0.094;2023-08-17T00:56:10;16.88;;;8.95;;
26253;SDS011;53339;51.378;0.094;2023-08-17T00:58:39;13.65;;;7.63;;
26253;SDS011;53339;51.378;0.094;2023-08-17T01:01:13;17.25;;;9.82;;
26253;SDS011;53339;51.378;0.094;2023-08-17T01:03:42;17.25;;;8.90;;
26253;SDS011;53339;51.378;0.094;2023-08-17T01:06:16;15.82;;;9.52;;
26253;SDS011;53339;51.378;0.094;2023-08-17T01:08:48;17.65;;;9.45;;
26253;SDS011;53339;51.378;0.094;2023-08-17T01:11:30;18.83;;;10.52;;
26253;SDS011;53339;51.378;0.094;2023-08-17T01:14:32;16.92;;;8.77;;
26253;SDS011;53339;51.378;0.094;2023-08-17T01:17:17;14.70;;;9.43;;
26253;SDS011;53339;51.378;0.094;2023-08-17T01:19:55;17.17;;;9.40;;
26253;SDS011;53339;51.378;0.094;2023-08-17T01:22:27;17.00;;;9.35;;
26253;SDS011;53339;51.378;0.094;2023-08-17T01:25:05;13.68;;;8.50;;
26253;SDS011;53339;51.378;0.094;2023-08-17T01:27:43;16.92;;;8.70;;
26253;SDS011;53339;51.378;0.094;2023-08-17T01:30:15;16.10;;;8.65;;
26253;SDS011;53339;51.378;0.094;2023-08-17T01:35:30;17.15;;;9.00;;
26253;SDS011;53339;51.378;0.094;2023-08-17T01:38:26;17.38;;;9.23;;
26253;SDS011;53339;51.378;0.094;2023-08-17T01:40:56;17.35;;;9.93;;
26253;SDS011;53339;51.378;0.094;2023-08-17T01:43:36;16.98;;;10.02;;
26253;SDS011;53339;51.378;0.094;2023-08-17T01:46:09;17.20;;;9.60;;
26253;SDS011;53339;51.378;0.094;2023-08-17T01:48:37;14.35;;;7.07;;
26253;SDS011;53339;51.378;0.094;2023-08-17T01:51:09;15.52;;;8.63;;
26253;SDS011;53339;51.378;0.094;2023-08-17T01:53:38;17.65;;;8.93;;
26253;SDS011;53339;51.378;0.094;2023-08-17T01:56:11;18.55;;;8.32;;
26253;SDS011;53339;51.378;0.094;2023-08-17T01:58:40;19.25;;;10.02;;
26253;SDS011;53339;51.378;0.094;2023-08-17T02:01:08;15.65;;;9.40;;
26253;SDS011;53339;51.378;0.094;2023-08-17T02:03:43;18.75;;;9.00;;
26253;SDS011;53339;51.378;0.094;2023-08-17T02:06:13;16.50;;;9.75;;
26253;SDS011;53339;51.378;0.094;2023-08-17T02:08:45;15.57;;;8.15;;
26253;SDS011;53339;51.378;0.094;2023-08-17T02:11:15;16.98;;;9.18;;
26253;SDS011;53339;51.378;0.094;2023-08-17T02:13:45;16.08;;;9.18;;
26253;SDS011;53339;51.378;0.094;2023-08-17T02:16:14;18.67;;;9.35;;
26253;SDS011;53339;51.378;0.094;2023-08-17T02:18:46;18.20;;;8.57;;
26253;SDS011;53339;51.378;0.094;2023-08-17T02:21:17;14.45;;;9.27;;
26253;SDS011;53339;51.378;0.094;2023-08-17T02:23:46;13.52;;;7.60;;
26253;SDS011;53339;51.378;0.094;2023-08-17T02:26:21;14.65;;;9.13;;
26253;SDS011;53339;51.378;0.094;2023-08-17T02:28:54;17.63;;;9.57;;
26253;SDS011;53339;51.378;0.094;2023-08-17T02:31:24;18.85;;;9.30;;
26253;SDS011;53339;51.378;0.094;2023-08-17T02:33:57;16.83;;;8.05;;
26253;SDS011;53339;51.378;0.094;2023-08-17T02:36:33;16.17;;;9.23;;
26253;SDS011;53339;51.378;0.094;2023-08-17T02:39:03;15.10;;;8.25;;
26253;SDS011;53339;51.378;0.094;2023-08-17T02:41:33;15.85;;;8.18;;
26253;SDS011;53339;51.378;0.094;2023-08-17T02:44:03;22.77;;;9.80;;
26253;SDS011;53339;51.378;0.094;2023-08-17T02:46:36;15.50;;;7.70;;
26253;SDS011;53339;51.378;0.094;2023-08-17T02:49:05;15.05;;;7.35;;
26253;SDS011;53339;51.378;0.094;2023-08-17T02:51:34;13.38;;;9.00;;
26253;SDS011;53339;51.378;0.094;2023-08-17T02:54:03;12.63;;;7.60;;
26253;SDS011;53339;51.378;0.094;2023-08-17T02:56:35;16.95;;;8.90;;
26253;SDS011;53339;51.378;0.094;2023-08-17T02:59:10;13.75;;;5.75;;
26253;SDS011;53339;51.378;0.094;2023-08-17T03:01:39;12.73;;;7.90;;
26253;SDS011;53339;51.378;0.094;2023-08-17T03:04:12;13.95;;;7.30;;
26253;SDS011;53339;51.378;0.094;2023-08-17T03:06:41;13.23;;;6.80;;
26253;SDS011;53339;51.378;0.094;2023-08-17T03:09:09;12.27;;;6.95;;
26253;SDS011;53339;51.378;0.094;2023-08-17T03:11:38;13.48;;;5.18;;
26253;SDS011;53339;51.378;0.094;2023-08-17T03:14:13;11.52;;;4.50;;
26253;SDS011;53339;51.378;0.094;2023-08-17T03:16:43;11.20;;;6.13;;
26253;SDS011;53339;51.378;0.094;2023-08-17T03:19:15;11.95;;;7.07;;
26253;SDS011;53339;51.378;0.094;2023-08-17T03:21:44;15.05;;;7.18;;
26253;SDS011;53339;51.378;0.094;2023-08-17T03:24:16;9.63;;;4.93;;
26253;SDS011;53339;51.378;0.094;2023-08-17T03:26:45;12.18;;;7.07;;
26253;SDS011;53339;51.378;0.094;2023-08-17T03:29:16;12.93;;;5.90;;
26253;SDS011;53339;51.378;0.094;2023-08-17T03:31:45;13.15;;;7.57;;
26253;SDS011;53339;51.378;0.094;2023-08-17T03:34:14;9.25;;;5.45;;
26253;SDS011;53339;51.378;0.094;2023-08-17T03:36:43;13.57;;;6.25;;
26253;SDS011;53339;51.378;0.094;2023-08-17T03:39:11;12.07;;;6.35;;
26253;SDS011;53339;51.378;0.094;2023-08-17T03:41:39;14.32;;;5.72;;
26253;SDS011;53339;51.378;0.094;2023-08-17T03:44:09;13.40;;;6.22;;
26253;SDS011;53339;51.378;0.094;2023-08-17T03:46:38;14.02;;;5.70;;
26253;SDS011;53339;51.378;0.094;2023-08-17T03:49:11;14.35;;;6.28;;
26253;SDS011;53339;51.378;0.094;2023-08-17T03:51:44;13.40;;;6.68;;
26253;SDS011;53339;51.378;0.094;2023-08-17T03:54:13;13.32;;;6.35;;
26253;SDS011;53339;51.378;0.094;2023-08-17T03:56:43;10.48;;;5.90;;
26253;SDS011;53339;51.378;0.094;2023-08-17T03:59:14;12.18;;;5.65;;
26253;SDS011;53339;51.378;0.094;2023-08-17T04:01:46;12.48;;;6.03;;
26253;SDS011;53339;51.378;0.094;2023-08-17T04:04:19;10.38;;;5.97;;
26253;SDS011;53339;51.378;0.094;2023-08-17T04:07:05;12.13;;;5.93;;
26253;SDS011;53339;51.378;0.094;2023-08-17T04:09:35;11.77;;;4.60;;
26253;SDS011;53339;51.378;0.094;2023-08-17T04:14:39;13.55;;;4.10;;
26253;SDS011;53339;51.378;0.094;2023-08-17T04:17:07;12.13;;;6.60;;
26253;SDS011;53339;51.378;0.094;2023-08-17T04:19:35;9.10;;;4.93;;
26253;SDS011;53339;51.378;0.094;2023-08-17T04:22:05;14.10;;;5.63;;
26253;SDS011;53339;51.378;0.094;2023-08-17T04:24:35;11.15;;;5.97;;
26253;SDS011;53339;51.378;0.094;2023-08-17T04:27:03;11.07;;;5.30;;
26253;SDS011;53339;51.378;0.094;2023-08-17T04:29:33;10.40;;;4.03;;
26253;SDS011;53339;51.378;0.094;2023-08-17T04:32:03;11.70;;;5.55;;
26253;SDS011;53339;51.378;0.094;2023-08-17T04:34:35;11.20;;;5.90;;
26253;SDS011;53339;51.378;0.094;2023-08-17T04:37:05;14.32;;;5.80;;
26253;SDS011;53339;51.378;0.094;2023-08-17T04:39:33;13.43;;;5.63;;
26253;SDS011;53339;51.378;0.094;2023-08-17T04:42:05;8.32;;;5.43;;
26253;SDS011;53339;51.378;0.094;2023-08-17T04:44:34;12.02;;;5.45;;
26253;SDS011;53339;51.378;0.094;2023-08-17T04:47:04;11.05;;;6.28;;
26253;SDS011;53339;51.378;0.094;2023-08-17T04:49:32;9.00;;;4.88;;
26253;SDS011;53339;51.378;0.094;2023-08-17T04:52:00;13.55;;;4.90;;
26253;SDS011;53339;51.378;0.094;2023-08-17T04:54:32;11.52;;;5.35;;
26253;SDS011;53339;51.378;0.094;2023-08-17T04:57:01;10.40;;;4.88;;
26253;SDS011;53339;51.378;0.094;2023-08-17T04:59:53;16.10;;;5.32;;
26253;SDS011;53339;51.378;0.094;2023-08-17T05:02:20;10.30;;;5.05;;
26253;SDS011;53339;51.378;0.094;2023-08-17T05:04:49;11.75;;;5.35;;
26253;SDS011;53339;51.378;0.094;2023-08-17T05:07:17;8.50;;;5.35;;
26253;SDS011;53339;51.378;0.094;2023-08-17T05:09:46;11.50;;;5.25;;
26253;SDS011;53339;51.378;0.094;2023-08-17T05:12:14;14.25;;;5.68;;
26253;SDS011;53339;51.378;0.094;2023-08-17T05:14:42;11.93;;;5.13;;
26253;SDS011;53339;51.378;0.094;2023-08-17T05:17:10;11.50;;;4.18;;
26253;SDS011;53339;51.378;0.094;2023-08-17T05:19:39;10.95;;;5.15;;
26253;SDS011;53339;51.378;0.094;2023-08-17T05:22:10;11.73;;;4.70;;
26253;SDS011;53339;51.378;0.094;2023-08-17T05:24:40;12.98;;;5.55;;
26253;SDS011;53339;51.378;0.094;2023-08-17T05:27:10;14.70;;;5.18;;
26253;SDS011;53339;51.378;0.094;2023-08-17T05:29:40;13.00;;;6.18;;
26253;SDS011;53339;51.378;0.094;2023-08-17T05:32:11;10.35;;;5.72;;
26253;SDS011;53339;51.378;0.094;2023-08-17T05:34:41;13.02;;;5.28;;
26253;SDS011;53339;51.378;0.094;2023-08-17T05:37:16;13.77;;;3.65;;
26253;SDS011;53339;51.378;0.094;2023-08-17T05:39:45;16.65;;;5.72;;
26253;SDS011;53339;51.378;0.094;2023-08-17T05:42:17;11.63;;;5.53;;
26253;SDS011;53339;51.378;0.094;2023-08-17T05:47:17;11.57;;;5.97;;
26253;SDS011;53339;51.378;0.094;2023-08-17T05:49:46;11.55;;;4.43;;
26253;SDS011;53339;51.378;0.094;2023-08-17T05:52:14;14.50;;;5.05;;
26253;SDS011;53339;51.378;0.094;2023-08-17T05:54:46;9.93;;;4.70;;
26253;SDS011;53339;51.378;0.094;2023-08-17T05:57:15;11.18;;;5.63;;
26253;SDS011;53339;51.378;0.094;2023-08-17T05:59:43;8.90;;;4.78;;
26253;SDS011;53339;51.378;0.094;2023-08-17T06:02:37;7.50;;;4.35;;
26253;SDS011;53339;51.378;0.094;2023-08-17T06:05:09;10.75;;;4.88;;
26253;SDS011;53339;51.378;0.094;2023-08-17T06:07:42;12.90;;;5.13;;
26253;SDS011;53339;51.378;0.094;2023-08-17T06:10:18;11.88;;;5.25;;
26253;SDS011;53339;51.378;0.094;2023-08-17T06:15:22;9.75;;;4.88;;
26253;SDS011;53339;51.378;0.094;2023-08-17T06:17:51;10.45;;;4.60;;
26253;SDS011;53339;51.378;0.094;2023-08-17T06:20:19;9.65;;;3.13;;
26253;SDS011;53339;51.378;0.094;2023-08-17T06:22:51;12.82;;;6.03;;
26253;SDS011;53339;51.378;0.094;2023-08-17T06:25:21;9.40;;;4.57;;
26253;SDS011;53339;51.378;0.094;2023-08-17T06:27:49;11.25;;;4.22;;
26253;SDS011;53339;51.378;0.094;2023-08-17T06:30:20;11.10;;;5.13;;
26253;SDS011;53339;51.378;0.094;2023-08-17T06:32:52;15.13;;;4.28;;
26253;SDS011;53339;51.378;0.094;2023-08-17T06:35:23;11.77;;;4.68;;
26253;SDS011;53339;51.378;0.094;2023-08-17T06:37:51;9.68;;;4.50;;
26253;SDS011;53339;51.378;0.094;2023-08-17T06:40:21;17.30;;;5.53;;
26253;SDS011;53339;51.378;0.094;2023-08-17T06:42:52;9.60;;;4.90;;
26253;SDS011;53339;51.378;0.094;2023-08-17T06:45:21;7.80;;;3.00;;
26253;SDS011;53339;51.378;0.094;2023-08-17T06:47:55;9.10;;;4.03;;
26253;SDS011;53339;51.378;0.094;2023-08-17T06:50:24;9.15;;;4.10;;
26253;SDS011;53339;51.378;0.094;2023-08-17T06:52:54;11.00;;;4.13;;
26253;SDS011;53339;51.378;0.094;2023-08-17T06:55:26;8.18;;;4.28;;
26253;SDS011;53339;51.378;0.094;2023-08-17T06:57:54;8.73;;;4.47;;
26253;SDS011;53339;51.378;0.094;2023-08-17T07:00:23;7.07;;;3.90;;
26253;SDS011;53339;51.378;0.094;2023-08-17T07:02:51;6.35;;;4.18;;
26253;SDS011;53339;51.378;0.094;2023-08-17T07:05:23;12.13;;;4.50;;
26253;SDS011;53339;51.378;0.094;2023-08-17T07:07:51;9.80;;;3.80;;
26253;SDS011;53339;51.378;0.094;2023-08-17T07:10:20;9.23;;;4.18;;
26253;SDS011;53339;51.378;0.094;2023-08-17T07:12:49;10.90;;;3.97;;
26253;SDS011;53339;51.378;0.094;2023-08-17T07:15:17;6.93;;;3.67;;
26253;SDS011;53339;51.378;0.094;2023-08-17T07:17:46;9.63;;;4.38;;
26253;SDS011;53339;51.378;0.094;2023-08-17T07:20:16;6.60;;;4.15;;
26253;SDS011;53339;51.378;0.094;2023-08-17T07:22:44;8.98;;;4.07;;
26253;SDS011;53339;51.378;0.094;2023-08-17T07:27:42;11.90;;;3.88;;
26253;SDS011;53339;51.378;0.094;2023-08-17T07:30:19;6.75;;;3.88;;
26253;SDS011;53339;51.378;0.094;2023-08-17T07:32:47;7.25;;;4.15;;
26253;SDS011;53339;51.378;0.094;2023-08-17T07:35:47;7.97;;;4.25;;
26253;SDS011;53339;51.378;0.094;2023-08-17T07:38:16;9.43;;;4.28;;
26253;SDS011;53339;51.378;0.094;2023-08-17T07:40:45;12.45;;;4.78;;
26253;SDS011;53339;51.378;0.094;2023-08-17T07:43:14;7.60;;;4.57;;
26253;SDS011;53339;51.378;0.094;2023-08-17T07:45:51;8.48;;;4.45;;
26253;SDS011;53339;51.378;0.094;2023-08-17T07:48:21;6.18;;;4.32;;
26253;SDS011;53339;51.378;0.094;2023-08-17T07:50:50;8.77;;;4.15;;
26253;SDS011;53339;51.378;0.094;2023-08-17T07:53:21;6.63;;;2.92;;
26253;SDS011;53339;51.378;0.094;2023-08-17T07:55:49;9.00;;;3.90;;
26253;SDS011;53339;51.378;0.094;2023-08-17T07:58:17;8.82;;;4.13;;
26253;SDS011;53339;51.378;0.094;2023-08-17T08:00:45;7.15;;;3.88;;
26253;SDS011;53339;51.378;0.094;2023-08-17T08:03:19;6.40;;;3.92;;
26253;SDS011;53339;51.378;0.094;2023-08-17T08:05:49;6.65;;;4.28;;
26253;SDS011;53339;51.378;0.094;2023-08-17T08:08:17;6.95;;;4.15;;
26253;SDS011;53339;51.378;0.094;2023-08-17T08:10:52;11.65;;;4.32;;
26253;SDS011;53339;51.378;0.094;2023-08-17T08:13:25;10.40;;;4.63;;
26253;SDS011;53339;51.378;0.094;2023-08-17T08:15:54;7.95;;;4.07;;
26253;SDS011;53339;51.378;0.094;2023-08-17T08:18:22;9.18;;;2.53;;
26253;SDS011;53339;51.378;0.094;2023-08-17T08:20:50;9.63;;;3.97;;
26253;SDS011;53339;51.378;0.094;2023-08-17T08:23:27;6.53;;;4.25;;
26253;SDS011;53339;51.378;0.094;2023-08-17T08:25:56;5.60;;;3.65;;
26253;SDS011;53339;51.378;0.094;2023-08-17T08:28:25;7.32;;;4.03;;
26253;SDS011;53339;51.378;0.094;2023-08-17T08:31:00;5.32;;;3.35;;
26253;SDS011;53339;51.378;0.094;2023-08-17T08:33:36;6.18;;;3.25;;
26253;SDS011;53339;51.378;0.094;2023-08-17T08:36:11;5.55;;;3.17;;
26253;SDS011;53339;51.378;0.094;2023-08-17T08:38:41;7.03;;;3.58;;
26253;SDS011;53339;51.378;0.094;2023-08-17T08:41:10;4.35;;;2.70;;
26253;SDS011;53339;51.378;0.094;2023-08-17T08:43:41;8.90;;;3.33;;
26253;SDS011;53339;51.378;0.094;2023-08-17T08:46:11;6.78;;;1.70;;
26253;SDS011;53339;51.378;0.094;2023-08-17T08:48:48;7.68;;;3.83;;
26253;SDS011;53339;51.378;0.094;2023-08-17T08:51:23;5.75;;;2.63;;
26253;SDS011;53339;51.378;0.094;2023-08-17T08:54:01;5.85;;;3.00;;
26253;SDS011;53339;51.378;0.094;2023-08-17T08:56:44;6.25;;;2.75;;
26253;SDS011;53339;51.378;0.094;2023-08-17T08:59:21;6.15;;;1.30;;
26253;SDS011;53339;51.378;0.094;2023-08-17T09:01:51;10.02;;;3.40;;
26253;SDS011;53339;51.378;0.094;2023-08-17T09:04:46;7.00;;;2.67;;
26253;SDS011;53339;51.378;0.094;2023-08-17T09:09:45;8.15;;;3.63;;
26253;SDS011;53339;51.378;0.094;2023-08-17T09:12:13;5.75;;;3.15;;
26253;SDS011;53339;51.378;0.094;2023-08-17T09:14:52;6.88;;;2.65;;
26253;SDS011;53339;51.378;0.094;2023-08-17T09:17:24;9.52;;;2.92;;
26253;SDS011;53339;51.378;0.094;2023-08-17T09:19:56;6.80;;;2.50;;
26253;SDS011;53339;51.378;0.094;2023-08-17T09:22:25;7.90;;;3.40;;
26253;SDS011;53339;51.378;0.094;2023-08-17T09:25:21;9.85;;;3.05;;
26253;SDS011;53339;51.378;0.094;2023-08-17T09:27:54;7.13;;;3.55;;
26253;SDS011;53339;51.378;0.094;2023-08-17T09:30:24;5.85;;;3.15;;
26253;SDS011;53339;51.378;0.094;2023-08-17T09:32:52;7.30;;;2.42;;
26253;SDS011;53339;51.378;0.094;2023-08-17T09:35:20;9.45;;;3.58;;
26253;SDS011;53339;51.378;0.094;2023-08-17T09:37:48;7.10;;;2.65;;
26253;SDS011;53339;51.378;0.094;2023-08-17T09:40:16;7.28;;;4.30;;
26253;SDS011;53339;51.378;0.094;2023-08-17T09:42:51;9.15;;;2.78;;
26253;SDS011;53339;51.378;0.094;2023-08-17T09:45:25;5.78;;;2.90;;
26253;SDS011;53339;51.378;0.094;2023-08-17T09:47:59;6.00;;;3.28;;
26253;SDS011;53339;51.378;0.094;2023-08-17T09:50:34;8.80;;;3.08;;
26253;SDS011;53339;51.378;0.094;2023-08-17T09:53:16;4.50;;;3.25;;
26253;SDS011;53339;51.378;0.094;2023-08-17T09:55:48;5.88;;;2.83;;
26253;SDS011;53339;51.378;0.094;2023-08-17T09:58:18;5.32;;;2.85;;
26253;SDS011;53339;51.378;0.094;2023-08-17T10:00:51;6.78;;;2.95;;
26253;SDS011;53339;51.378;0.094;2023-08-17T10:03:22;5.25;;;2.85;;
26253;SDS011;53339;51.378;0.094;2023-08-17T10:05:56;6.72;;;2.97;;
26253;SDS011;53339;51.378;0.094;2023-08-17T10:08:30;6.45;;;2.90;;
26253;SDS011;53339;51.378;0.094;2023-08-17T10:11:06;7.22;;;2.97;;
26253;SDS011;53339;51.378;0.094;2023-08-17T10:13:46;5.95;;;3.47;;
26253;SDS011;53339;51.378;0.094;2023-08-17T10:16:45;5.05;;;2.47;;
26253;SDS011;53339;51.378;0.094;2023-08-17T10:22:16;5.57;;;2.78;;
26253;SDS011;53339;51.378;0.094;2023-08-17T10:25:01;4.38;;;2.75;;
26253;SDS011;53339;51.378;0.094;2023-08-17T10:27:35;6.97;;;3.13;;
26253;SDS011;53339;51.378;0.094;2023-08-17T10:30:04;5.95;;;2.53;;
26253;SDS011;53339;51.378;0.094;2023-08-17T10:32:38;4.50;;;2.78;;
26253;SDS011;53339;51.378;0.094;2023-08-17T10:35:13;7.28;;;3.10;;
26253;SDS011;53339;51.378;0.094;2023-08-17T10:37:43;4.47;;;1.20;;
26253;SDS011;53339;51.378;0.094;2023-08-17T10:40:12;5.85;;;3.15;;
26253;SDS011;53339;51.378;0.094;2023-08-17T10:42:45;6.28;;;2.33;;
26253;SDS011;53339;51.378;0.094;2023-08-17T10:45:31;5.10;;;2.83;;
26253;SDS011;53339;51.378;0.094;2023-08-17T10:50:37;2.72;;;1.13;;
26253;SDS011;53339;51.378;0.094;2023-08-17T10:53:16;8.30;;;3.63;;
26253;SDS011;53339;51.378;0.094;2023-08-17T10:55:49;5.97;;;3.05;;
26253;SDS011;53339;51.378;0.094;2023-08-17T10:58:30;5.93;;;2.30;;
26253;SDS011;53339;51.378;0.094;2023-08-17T11:01:00;3.80;;;1.02;;
26253;SDS011;53339;51.378;0.094;2023-08-17T11:03:35;13.32;;;2.75;;
26253;SDS011;53339;51.378;0.094;2023-08-17T11:06:15;4.70;;;1.85;;
26253;SDS011;53339;51.378;0.094;2023-08-17T11:08:54;4.57;;;2.47;;
26253;SDS011;53339;51.378;0.094;2023-08-17T11:11:24;6.82;;;2.83;;
26253;SDS011;53339;51.378;0.094;2023-08-17T11:13:59;8.60;;;2.45;;
26253;SDS011;53339;51.378;0.094;2023-08-17T11:16:31;3.05;;;2.22;;
26253;SDS011;53339;51.378;0.094;2023-08-17T11:18:59;5.72;;;2.10;;
26253;SDS011;53339;51.378;0.094;2023-08-17T11:21:27;3.83;;;2.20;;
26253;SDS011;53339;51.378;0.094;2023-08-17T11:23:56;3.72;;;2.63;;
26253;SDS011;53339;51.378;0.094;2023-08-17T11:26:28;5.13;;;2.58;;
26253;SDS011;53339;51.378;0.094;2023-08-17T11:29:02;5.00;;;1.42;;
26253;SDS011;53339;51.378;0.094;2023-08-17T11:31:31;3.65;;;0.82;;
26253;SDS011;53339;51.378;0.094;2023-08-17T11:34:09;7.78;;;2.70;;
26253;SDS011;53339;51.378;0.094;2023-08-17T11:36:45;4.97;;;2.80;;
26253;SDS011;53339;51.378;0.094;2023-08-17T11:39:17;3.08;;;2.38;;
26253;SDS011;53339;51.378;0.094;2023-08-17T11:41:51;5.68;;;2.30;;
26253;SDS011;53339;51.378;0.094;2023-08-17T11:44:20;4.57;;;1.20;;
26253;SDS011;53339;51.378;0.094;2023-08-17T11:46:51;7.80;;;2.55;;
26253;SDS011;53339;51.378;0.094;2023-08-17T11:49:19;4.93;;;2.72;;
26253;SDS011;53339;51.378;0.094;2023-08-17T11:54:22;3.92;;;1.33;;
26253;SDS011;53339;51.378;0.094;2023-08-17T12:09:37;4.63;;;2.15;;
26253;SDS011;53339;51.378;0.094;2023-08-17T12:12:06;6.82;;;1.15;;
26253;SDS011;53339;51.378;0.094;2023-08-17T12:26:47;5.85;;;2.00;;
26253;SDS011;53339;51.378;0.094;2023-08-17T12:29:18;3.13;;;2.15;;
26253;SDS011;53339;51.378;0.094;2023-08-17T12:31:46;3.65;;;2.28;;
26253;SDS011;53339;51.378;0.094;2023-08-17T12:43:14;6.28;;;1.92;;
26253;SDS011;53339;51.378;0.094;2023-08-17T12:48:59;4.32;;;2.65;;
26253;SDS011;53339;51.378;0.094;2023-08-17T12:57:39;4.15;;;1.30;;
26253;SDS011;53339;51.378;0.094;2023-08-17T13:00:13;4.13;;;1.75;;
26253;SDS011;53339;51.378;0.094;2023-08-17T13:02:41;3.80;;;1.65;;
26253;SDS011;53339;51.378;0.094;2023-08-17T13:05:14;3.75;;;2.55;;
26253;SDS011;53339;51.378;0.094;2023-08-17T13:07:43;5.35;;;2.35;;
26253;SDS011;53339;51.378;0.094;2023-08-17T13:10:11;5.10;;;1.83;;
26253;SDS011;53339;51.378;0.094;2023-08-17T13:12:40;4.00;;;1.50;;
26253;SDS011;53339;51.378;0.094;2023-08-17T13:15:19;3.97;;;1.52;;
26253;SDS011;53339;51.378;0.094;2023-08-17T13:17:51;5.03;;;0.82;;
26253;SDS011;53339;51.378;0.094;2023-08-17T13:20:23;7.50;;;1.88;;
26253;SDS011;53339;51.378;0.094;2023-08-17T13:22:51;3.67;;;1.83;;
26253;SDS011;53339;51.378;0.094;2023-08-17T13:25:19;3.63;;;1.60;;
26253;SDS011;53339;51.378;0.094;2023-08-17T13:27:47;4.40;;;2.20;;
26253;SDS011;53339;51.378;0.094;2023-08-17T13:30:20;3.95;;;1.67;;
26253;SDS011;53339;51.378;0.094;2023-08-17T13:32:49;5.47;;;1.85;;
26253;SDS011;53339;51.378;0.094;2023-08-17T13:35:18;4.82;;;1.88;;
26253;SDS011;53339;51.378;0.094;2023-08-17T13:37:49;3.08;;;1.52;;
26253;SDS011;53339;51.378;0.094;2023-08-17T13:40:20;4.90;;;1.20;;
26253;SDS011;53339;51.378;0.094;2023-08-17T13:42:50;5.07;;;1.52;;
26253;SDS011;53339;51.378;0.094;2023-08-17T13:45:25;3.75;;;0.90;;
26253;SDS011;53339;51.378;0.094;2023-08-17T13:47:57;4.00;;;1.80;;
26253;SDS011;53339;51.378;0.094;2023-08-17T13:50:31;3.70;;;1.45;;
26253;SDS011;53339;51.378;0.094;2023-08-17T13:55:40;4.40;;;1.50;;
26253;SDS011;53339;51.378;0.094;2023-08-17T13:58:08;2.75;;;1.60;;
26253;SDS011;53339;51.378;0.094;2023-08-17T14:00:37;4.35;;;1.67;;
26253;SDS011;53339;51.378;0.094;2023-08-17T14:03:05;4.45;;;1.63;;
26253;SDS011;53339;51.378;0.094;2023-08-17T14:05:33;4.28;;;1.92;;
26253;SDS011;53339;51.378;0.094;2023-08-17T14:08:01;4.35;;;1.65;;
26253;SDS011;53339;51.378;0.094;2023-08-17T14:10:44;3.15;;;2.00;;
26253;SDS011;53339;51.378;0.094;2023-08-17T14:13:13;4.25;;;1.80;;
26253;SDS011;53339;51.378;0.094;2023-08-17T14:15:41;4.40;;;1.80;;
26253;SDS011;53339;51.378;0.094;2023-08-17T14:18:09;3.90;;;1.95;;
26253;SDS011;53339;51.378;0.094;2023-08-17T14:20:37;3.92;;;1.90;;
26253;SDS011;53339;51.378;0.094;2023-08-17T14:23:05;3.28;;;1.65;;
26253;SDS011;53339;51.378;0.094;2023-08-17T14:25:34;5.18;;;1.95;;
26253;SDS011;53339;51.378;0.094;2023-08-17T14:28:09;2.17;;;1.52;;
26253;SDS011;53339;51.378;0.094;2023-08-17T14:30:41;3.25;;;1.27;;
26253;SDS011;53339;51.378;0.094;2023-08-17T14:33:10;6.43;;;1.63;;
26253;SDS011;53339;51.378;0.094;2023-08-17T14:35:39;2.70;;;1.33;;
26253;SDS011;53339;51.378;0.094;2023-08-17T14:38:12;2.88;;;1.15;;
26253;SDS011;53339;51.378;0.094;2023-08-17T14:40:54;4.25;;;1.50;;
26253;SDS011;53339;51.378;0.094;2023-08-17T14:43:26;3.38;;;1.25;;
26253;SDS011;53339;51.378;0.094;2023-08-17T14:45:55;3.13;;;1.15;;
26253;SDS011;53339;51.378;0.094;2023-08-17T14:48:23;2.83;;;1.08;;
26253;SDS011;53339;51.378;0.094;2023-08-17T14:50:51;2.30;;;0.98;;
26253;SDS011;53339;51.378;0.094;2023-08-17T14:53:35;5.82;;;1.40;;
26253;SDS011;53339;51.378;0.094;2023-08-17T14:56:05;4.40;;;1.70;;
26253;SDS011;53339;51.378;0.094;2023-08-17T14:58:33;3.78;;;1.75;;
26253;SDS011;53339;51.378;0.094;2023-08-17T15:01:02;4.35;;;1.40;;
26253;SDS011;53339;51.378;0.094;2023-08-17T15:03:31;4.53;;;1.70;;
26253;SDS011;53339;51.378;0.094;2023-08-17T15:06:03;4.10;;;1.40;;
26253;SDS011;53339;51.378;0.094;2023-08-17T15:08:38;3.83;;;1.30;;
26253;SDS011;53339;51.378;0.094;2023-08-17T15:11:06;4.07;;;1.40;;
26253;SDS011;53339;51.378;0.094;2023-08-17T15:13:35;4.72;;;1.73;;
26253;SDS011;53339;51.378;0.094;2023-08-17T15:18:32;5.03;;;1.63;;
26253;SDS011;53339;51.378;0.094;2023-08-17T15:21:00;3.03;;;1.45;;
26253;SDS011;53339;51.378;0.094;2023-08-17T15:23:35;3.55;;;1.25;;
26253;SDS011;53339;51.378;0.094;2023-08-17T15:26:08;4.30;;;1.88;;
26253;SDS011;53339;51.378;0.094;2023-08-17T15:28:39;2.30;;;1.73;;
26253;SDS011;53339;51.378;0.094;2023-08-17T15:31:09;6.25;;;1.30;;
26253;SDS011;53339;51.378;0.094;2023-08-17T15:33:47;2.22;;;1.10;;
26253;SDS011;53339;51.378;0.094;2023-08-17T15:36:20;3.45;;;1.30;;
26253;SDS011;53339;51.378;0.094;2023-08-17T15:38:56;3.47;;;1.65;;
26253;SDS011;53339;51.378;0.094;2023-08-17T15:41:25;2.20;;;0.98;;
26253;SDS011;53339;51.378;0.094;2023-08-17T15:43:56;2.88;;;0.70;;
26253;SDS011;53339;51.378;0.094;2023-08-17T15:46:24;3.53;;;1.42;;
26253;SDS011;53339;51.378;0.094;2023-08-17T15:48:59;4.25;;;1.20;;
26253;SDS011;53339;51.378;0.094;2023-08-17T15:51:26;4.07;;;1.50;;
26253;SDS011;53339;51.378;0.094;2023-08-17T15:53:55;1.90;;;0.70;;
26253;SDS011;53339;51.378;0.094;2023-08-17T15:56:24;5.78;;;2.03;;
26253;SDS011;53339;51.378;0.094;2023-08-17T15:59:00;3.08;;;1.38;;
26253;SDS011;53339;51.378;0.094;2023-08-17T16:01:31;3.63;;;1.42;;
26253;SDS011;53339;51.378;0.094;2023-08-17T16:03:59;4.28;;;1.25;;
26253;SDS011;53339;51.378;0.094;2023-08-17T16:06:27;2.95;;;1.17;;
26253;SDS011;53339;51.378;0.094;2023-08-17T16:08:55;2.55;;;2.35;;
26253;SDS011;53339;51.378;0.094;2023-08-17T16:11:23;4.45;;;1.70;;
26253;SDS011;53339;51.378;0.094;2023-08-17T16:13:54;8.85;;;2.15;;
26253;SDS011;53339;51.378;0.094;2023-08-17T16:16:27;6.13;;;1.67;;
26253;SDS011;53339;51.378;0.094;2023-08-17T16:18:55;6.95;;;1.80;;
26253;SDS011;53339;51.378;0.094;2023-08-17T16:21:23;3.65;;;2.03;;
26253;SDS011;53339;51.378;0.094;2023-08-17T16:23:51;5.20;;;1.83;;